sensor_id;sensor_type;location;lat;lon;timestamp;P1;P2;P0
77413;PMS7003;66486;49.992;19.164;2023-03-19T00:02:23;107.50;83.50;48.75
77413;PMS7003;66486;49.992;19.164;2023-03-19T00:04:49;103.75;78.75;45.00
77413;PMS7003;66486;49.992;19.164;2023-03-19T00:07:15;100.50;78.00;44.75
77413;PMS7003;66486;49.992;19.164;2023-03-19T00:09:42;104.25;78.50;45.75
77413;PMS7003;66486;49.992;19.164;2023-03-19T00:12:09;98.75;76.50;45.75
77413;PMS7003;66486;49.992;19.164;2023-03-19T00:14:36;105.75;79.75;42.25
77413;PMS7003;66486;49.992;19.164;2023-03-19T00:17:02;97.00;72.25;41.75
77413;PMS7003;66486;49.992;19.164;2023-03-19T00:19:29;91.25;72.50;44.50
77413;PMS7003;66486;49.992;19.164;2023-03-19T00:21:54;80.75;64.25;42.00
77413;PMS7003;66486;49.992;19.164;2023-03-19T00:24:21;98.50;74.50;42.00
77413;PMS7003;66486;49.992;19.164;2023-03-19T00:26:47;93.00;73.75;43.00
77413;PMS7003;66486;49.992;19.164;2023-03-19T00:29:14;92.25;72.75;41.50
77413;PMS7003;66486;49.992;19.164;2023-03-19T00:31:40;99.00;76.25;43.50
77413;PMS7003;66486;49.992;19.164;2023-03-19T00:34:06;84.50;66.25;39.00
77413;PMS7003;66486;49.992;19.164;2023-03-19T00:36:33;90.00;69.75;39.25
77413;PMS7003;66486;49.992;19.164;2023-03-19T00:38:59;94.75;71.75;41.50
77413;PMS7003;66486;49.992;19.164;2023-03-19T00:41:26;92.75;72.00;40.00
77413;PMS7003;66486;49.992;19.164;2023-03-19T00:43:54;94.25;69.50;39.75
77413;PMS7003;66486;49.992;19.164;2023-03-19T00:46:21;92.50;74.75;42.25
77413;PMS7003;66486;49.992;19.164;2023-03-19T00:48:48;82.75;68.75;42.25
77413;PMS7003;66486;49.992;19.164;2023-03-19T00:51:18;93.25;72.75;40.50
77413;PMS7003;66486;49.992;19.164;2023-03-19T00:53:44;92.00;69.50;41.50
77413;PMS7003;66486;49.992;19.164;2023-03-19T00:56:11;6.50;6.50;6.50
77413;PMS7003;66486;49.992;19.164;2023-03-19T00:58:38;98.50;76.25;43.25
77413;PMS7003;66486;49.992;19.164;2023-03-19T01:01:08;92.25;71.75;39.00
77413;PMS7003;66486;49.992;19.164;2023-03-19T01:03:36;98.25;74.75;43.00
77413;PMS7003;66486;49.992;19.164;2023-03-19T01:06:01;90.50;73.25;43.25
77413;PMS7003;66486;49.992;19.164;2023-03-19T01:08:28;97.50;74.50;42.25
77413;PMS7003;66486;49.992;19.164;2023-03-19T01:10:54;94.00;69.25;39.00
77413;PMS7003;66486;49.992;19.164;2023-03-19T01:13:20;88.25;68.50;43.00
77413;PMS7003;66486;49.992;19.164;2023-03-19T01:15:46;84.25;66.50;42.00
77413;PMS7003;66486;49.992;19.164;2023-03-19T01:18:12;78.00;63.50;36.00
77413;PMS7003;66486;49.992;19.164;2023-03-19T01:20:38;91.25;71.50;39.50
77413;PMS7003;66486;49.992;19.164;2023-03-19T01:23:06;95.50;74.75;44.50
77413;PMS7003;66486;49.992;19.164;2023-03-19T01:25:33;92.00;70.50;42.00
77413;PMS7003;66486;49.992;19.164;2023-03-19T01:27:59;91.50;71.00;42.75
77413;PMS7003;66486;49.992;19.164;2023-03-19T01:30:25;92.50;70.25;42.00
77413;PMS7003;66486;49.992;19.164;2023-03-19T01:32:51;84.50;69.25;43.00
77413;PMS7003;66486;49.992;19.164;2023-03-19T01:35:17;91.25;74.75;44.50
77413;PMS7003;66486;49.992;19.164;2023-03-19T01:37:43;94.00;73.50;40.00
77413;PMS7003;66486;49.992;19.164;2023-03-19T01:40:10;96.00;73.25;45.50
77413;PMS7003;66486;49.992;19.164;2023-03-19T01:42:52;101.00;76.25;42.50
77413;PMS7003;66486;49.992;19.164;2023-03-19T01:45:29;93.75;71.75;38.25
77413;PMS7003;66486;49.992;19.164;2023-03-19T01:48:00;92.25;72.75;42.50
77413;PMS7003;66486;49.992;19.164;2023-03-19T01:50:27;96.50;74.50;42.50
77413;PMS7003;66486;49.992;19.164;2023-03-19T01:53:02;104.00;78.50;47.00
77413;PMS7003;66486;49.992;19.164;2023-03-19T01:55:29;78.25;65.50;40.50
77413;PMS7003;66486;49.992;19.164;2023-03-19T01:57:55;110.50;80.25;48.75
77413;PMS7003;66486;49.992;19.164;2023-03-19T02:00:22;103.25;78.50;42.75
77413;PMS7003;66486;49.992;19.164;2023-03-19T02:02:49;105.25;80.25;45.50
77413;PMS7003;66486;49.992;19.164;2023-03-19T02:05:18;99.75;76.00;44.00
77413;PMS7003;66486;49.992;19.164;2023-03-19T02:07:51;95.25;75.25;42.50
77413;PMS7003;66486;49.992;19.164;2023-03-19T02:10:19;74.50;63.50;42.00
77413;PMS7003;66486;49.992;19.164;2023-03-19T02:12:47;102.50;82.00;46.25
77413;PMS7003;66486;49.992;19.164;2023-03-19T02:15:13;104.25;77.00;41.00
77413;PMS7003;66486;49.992;19.164;2023-03-19T02:17:39;84.50;67.00;34.00
77413;PMS7003;66486;49.992;19.164;2023-03-19T02:20:17;103.50;78.00;45.75
77413;PMS7003;66486;49.992;19.164;2023-03-19T02:22:58;98.75;74.00;39.50
77413;PMS7003;66486;49.992;19.164;2023-03-19T02:25:37;78.75;62.50;23.50
77413;PMS7003;66486;49.992;19.164;2023-03-19T02:28:09;79.00;64.00;35.75
77413;PMS7003;66486;49.992;19.164;2023-03-19T02:30:36;99.75;73.75;40.00
77413;PMS7003;66486;49.992;19.164;2023-03-19T02:33:03;77.25;57.50;9.00
77413;PMS7003;66486;49.992;19.164;2023-03-19T02:35:30;102.25;79.25;49.50
77413;PMS7003;66486;49.992;19.164;2023-03-19T02:37:59;94.25;75.25;43.75
77413;PMS7003;66486;49.992;19.164;2023-03-19T02:40:33;104.00;77.50;46.25
77413;PMS7003;66486;49.992;19.164;2023-03-19T02:43:03;104.50;76.75;41.50
77413;PMS7003;66486;49.992;19.164;2023-03-19T02:45:29;102.75;78.00;47.25
77413;PMS7003;66486;49.992;19.164;2023-03-19T02:47:57;102.75;77.50;46.00
77413;PMS7003;66486;49.992;19.164;2023-03-19T02:50:23;96.50;73.50;44.75
77413;PMS7003;66486;49.992;19.164;2023-03-19T02:52:50;106.75;77.75;42.75
77413;PMS7003;66486;49.992;19.164;2023-03-19T02:55:16;91.25;73.25;47.50
77413;PMS7003;66486;49.992;19.164;2023-03-19T02:57:43;99.00;77.75;43.25
77413;PMS7003;66486;49.992;19.164;2023-03-19T03:00:10;111.25;87.25;48.75
77413;PMS7003;66486;49.992;19.164;2023-03-19T03:02:37;111.50;90.75;51.00
77413;PMS7003;66486;49.992;19.164;2023-03-19T03:05:04;109.25;84.75;46.25
77413;PMS7003;66486;49.992;19.164;2023-03-19T03:07:31;104.25;76.25;43.00
77413;PMS7003;66486;49.992;19.164;2023-03-19T03:09:57;95.75;73.75;39.75
77413;PMS7003;66486;49.992;19.164;2023-03-19T03:12:24;110.25;84.50;49.00
77413;PMS7003;66486;49.992;19.164;2023-03-19T03:14:49;92.25;71.75;45.00
77413;PMS7003;66486;49.992;19.164;2023-03-19T03:17:16;95.50;73.00;45.00
77413;PMS7003;66486;49.992;19.164;2023-03-19T03:19:42;102.00;80.25;46.00
77413;PMS7003;66486;49.992;19.164;2023-03-19T03:22:08;85.75;69.50;43.50
77413;PMS7003;66486;49.992;19.164;2023-03-19T03:24:34;91.25;68.75;41.00
77413;PMS7003;66486;49.992;19.164;2023-03-19T03:27:00;94.00;71.75;41.50
77413;PMS7003;66486;49.992;19.164;2023-03-19T03:29:26;98.50;74.75;44.75
77413;PMS7003;66486;49.992;19.164;2023-03-19T03:31:52;101.50;78.00;43.00
77413;PMS7003;66486;49.992;19.164;2023-03-19T03:34:18;94.50;69.50;45.00
77413;PMS7003;66486;49.992;19.164;2023-03-19T03:36:44;90.00;69.50;39.50
77413;PMS7003;66486;49.992;19.164;2023-03-19T03:39:11;97.75;74.75;41.75
77413;PMS7003;66486;49.992;19.164;2023-03-19T03:41:38;102.75;79.25;45.50
77413;PMS7003;66486;49.992;19.164;2023-03-19T03:44:04;94.50;72.25;47.50
77413;PMS7003;66486;49.992;19.164;2023-03-19T03:46:30;97.00;75.50;44.75
77413;PMS7003;66486;49.992;19.164;2023-03-19T03:48:56;96.00;76.00;41.00
77413;PMS7003;66486;49.992;19.164;2023-03-19T03:51:22;98.50;73.75;42.25
77413;PMS7003;66486;49.992;19.164;2023-03-19T03:53:48;93.50;72.50;43.00
77413;PMS7003;66486;49.992;19.164;2023-03-19T03:56:14;59.50;53.00;41.50
77413;PMS7003;66486;49.992;19.164;2023-03-19T03:58:40;94.25;74.25;43.00
77413;PMS7003;66486;49.992;19.164;2023-03-19T04:01:06;85.50;69.00;39.75
77413;PMS7003;66486;49.992;19.164;2023-03-19T04:03:33;91.00;69.25;33.00
77413;PMS7003;66486;49.992;19.164;2023-03-19T04:05:59;82.75;67.00;34.00
77413;PMS7003;66486;49.992;19.164;2023-03-19T04:08:25;91.25;69.25;41.75
77413;PMS7003;66486;49.992;19.164;2023-03-19T04:10:51;92.50;72.00;43.00
77413;PMS7003;66486;49.992;19.164;2023-03-19T04:13:17;93.00;72.50;42.25
77413;PMS7003;66486;49.992;19.164;2023-03-19T04:15:43;105.25;77.00;45.25
77413;PMS7003;66486;49.992;19.164;2023-03-19T04:18:09;91.75;71.00;42.75
77413;PMS7003;66486;49.992;19.164;2023-03-19T04:20:35;97.25;76.00;42.50
77413;PMS7003;66486;49.992;19.164;2023-03-19T04:23:01;99.75;76.75;43.00
77413;PMS7003;66486;49.992;19.164;2023-03-19T04:25:28;111.50;84.75;48.50
77413;PMS7003;66486;49.992;19.164;2023-03-19T04:27:55;102.50;75.75;45.75
77413;PMS7003;66486;49.992;19.164;2023-03-19T04:30:22;85.00;65.00;39.00
77413;PMS7003;66486;49.992;19.164;2023-03-19T04:32:48;102.75;82.00;48.00
77413;PMS7003;66486;49.992;19.164;2023-03-19T04:35:14;92.50;73.25;42.00
77413;PMS7003;66486;49.992;19.164;2023-03-19T04:37:42;95.25;75.00;42.75
77413;PMS7003;66486;49.992;19.164;2023-03-19T04:40:13;94.75;74.75;41.50
77413;PMS7003;66486;49.992;19.164;2023-03-19T04:42:41;95.25;70.50;39.25
77413;PMS7003;66486;49.992;19.164;2023-03-19T04:45:09;100.00;76.75;45.00
77413;PMS7003;66486;49.992;19.164;2023-03-19T04:47:35;91.00;66.25;36.00
77413;PMS7003;66486;49.992;19.164;2023-03-19T04:50:01;98.25;77.25;45.50
77413;PMS7003;66486;49.992;19.164;2023-03-19T04:52:27;90.75;72.75;45.75
77413;PMS7003;66486;49.992;19.164;2023-03-19T04:54:54;107.00;82.25;48.50
77413;PMS7003;66486;49.992;19.164;2023-03-19T04:57:20;97.00;72.25;42.50
77413;PMS7003;66486;49.992;19.164;2023-03-19T04:59:46;80.75;63.75;37.75
77413;PMS7003;66486;49.992;19.164;2023-03-19T05:02:12;89.00;67.50;37.50
77413;PMS7003;66486;49.992;19.164;2023-03-19T05:04:38;92.00;73.75;45.00
77413;PMS7003;66486;49.992;19.164;2023-03-19T05:07:04;106.00;79.50;45.50
77413;PMS7003;66486;49.992;19.164;2023-03-19T05:09:30;106.75;78.00;42.00
77413;PMS7003;66486;49.992;19.164;2023-03-19T05:11:56;94.75;74.00;41.75
77413;PMS7003;66486;49.992;19.164;2023-03-19T05:14:23;98.75;75.50;45.75
77413;PMS7003;66486;49.992;19.164;2023-03-19T05:16:49;104.75;79.25;39.25
77413;PMS7003;66486;49.992;19.164;2023-03-19T05:19:16;103.50;78.00;47.75
77413;PMS7003;66486;49.992;19.164;2023-03-19T05:21:42;110.75;87.75;48.00
77413;PMS7003;66486;49.992;19.164;2023-03-19T05:24:08;90.25;69.75;40.50
77413;PMS7003;66486;49.992;19.164;2023-03-19T05:26:34;94.25;74.00;46.25
77413;PMS7003;66486;49.992;19.164;2023-03-19T05:29:02;104.50;78.00;44.75
77413;PMS7003;66486;49.992;19.164;2023-03-19T05:31:29;104.00;75.50;44.75
77413;PMS7003;66486;49.992;19.164;2023-03-19T05:33:55;107.00;84.00;48.50
77413;PMS7003;66486;49.992;19.164;2023-03-19T05:36:21;98.25;73.75;41.50
77413;PMS7003;66486;49.992;19.164;2023-03-19T05:38:47;103.00;79.25;44.00
77413;PMS7003;66486;49.992;19.164;2023-03-19T05:41:13;109.25;86.50;49.00
77413;PMS7003;66486;49.992;19.164;2023-03-19T05:43:39;98.25;75.00;45.50
77413;PMS7003;66486;49.992;19.164;2023-03-19T05:46:05;95.50;78.00;47.00
77413;PMS7003;66486;49.992;19.164;2023-03-19T05:48:32;91.50;67.75;40.50
77413;PMS7003;66486;49.992;19.164;2023-03-19T05:50:58;90.25;69.50;44.25
77413;PMS7003;66486;49.992;19.164;2023-03-19T05:53:24;95.75;73.75;44.25
77413;PMS7003;66486;49.992;19.164;2023-03-19T05:55:50;103.50;80.75;48.25
77413;PMS7003;66486;49.992;19.164;2023-03-19T05:58:16;105.50;80.25;46.00
77413;PMS7003;66486;49.992;19.164;2023-03-19T06:00:41;104.25;84.75;49.00
77413;PMS7003;66486;49.992;19.164;2023-03-19T06:03:08;113.00;89.00;48.75
77413;PMS7003;66486;49.992;19.164;2023-03-19T06:05:33;113.00;97.25;52.25
77413;PMS7003;66486;49.992;19.164;2023-03-19T06:08:00;111.50;86.00;46.00
77413;PMS7003;66486;49.992;19.164;2023-03-19T06:10:26;105.50;82.50;47.75
77413;PMS7003;66486;49.992;19.164;2023-03-19T06:12:52;104.50;81.50;46.00
77413;PMS7003;66486;49.992;19.164;2023-03-19T06:15:18;98.50;76.75;45.75
77413;PMS7003;66486;49.992;19.164;2023-03-19T06:17:44;79.25;62.25;37.75
77413;PMS7003;66486;49.992;19.164;2023-03-19T06:20:10;93.50;75.00;42.75
77413;PMS7003;66486;49.992;19.164;2023-03-19T06:22:38;88.50;70.00;41.75
77413;PMS7003;66486;49.992;19.164;2023-03-19T06:25:05;85.50;68.50;40.00
77413;PMS7003;66486;49.992;19.164;2023-03-19T06:27:32;94.25;71.25;42.25
77413;PMS7003;66486;49.992;19.164;2023-03-19T06:29:58;93.75;75.00;42.00
77413;PMS7003;66486;49.992;19.164;2023-03-19T06:32:24;82.00;65.00;38.50
77413;PMS7003;66486;49.992;19.164;2023-03-19T06:34:50;83.00;61.50;33.00
77413;PMS7003;66486;49.992;19.164;2023-03-19T06:37:16;79.25;65.50;40.00
77413;PMS7003;66486;49.992;19.164;2023-03-19T06:39:43;91.67;69.00;40.00
77413;PMS7003;66486;49.992;19.164;2023-03-19T06:42:09;75.00;60.67;34.67
77413;PMS7003;66486;49.992;19.164;2023-03-19T06:44:35;70.67;59.33;40.00
77413;PMS7003;66486;49.992;19.164;2023-03-19T06:47:01;71.75;60.75;36.25
77413;PMS7003;66486;49.992;19.164;2023-03-19T06:49:27;67.00;57.33;33.00
77413;PMS7003;66486;49.992;19.164;2023-03-19T06:51:53;69.50;58.00;36.00
77413;PMS7003;66486;49.992;19.164;2023-03-19T06:54:19;67.33;52.00;33.00
77413;PMS7003;66486;49.992;19.164;2023-03-19T06:56:45;72.75;58.00;36.25
77413;PMS7003;66486;49.992;19.164;2023-03-19T06:59:11;70.50;59.50;36.00
77413;PMS7003;66486;49.992;19.164;2023-03-19T07:01:39;70.50;57.50;36.00
77413;PMS7003;66486;49.992;19.164;2023-03-19T07:04:06;59.00;51.75;34.00
77413;PMS7003;66486;49.992;19.164;2023-03-19T07:06:33;69.50;58.00;34.25
77413;PMS7003;66486;49.992;19.164;2023-03-19T07:08:59;71.00;56.50;34.00
77413;PMS7003;66486;49.992;19.164;2023-03-19T07:11:25;62.75;51.75;33.25
77413;PMS7003;66486;49.992;19.164;2023-03-19T07:13:51;56.00;49.33;30.00
77413;PMS7003;66486;49.992;19.164;2023-03-19T07:16:18;70.25;54.00;31.25
77413;PMS7003;66486;49.992;19.164;2023-03-19T07:18:44;53.25;47.50;27.25
77413;PMS7003;66486;49.992;19.164;2023-03-19T07:21:10;43.20;42.40;23.60
77413;PMS7003;66486;49.992;19.164;2023-03-19T07:23:36;45.00;40.00;24.00
77413;PMS7003;66486;49.992;19.164;2023-03-19T07:26:02;52.20;48.20;29.60
77413;PMS7003;66486;49.992;19.164;2023-03-19T07:28:28;47.50;45.75;29.00
77413;PMS7003;66486;49.992;19.164;2023-03-19T07:30:54;44.40;43.00;28.40
77413;PMS7003;66486;49.992;19.164;2023-03-19T07:33:20;58.50;48.00;27.75
77413;PMS7003;66486;49.992;19.164;2023-03-19T07:35:47;43.80;42.60;26.00
77413;PMS7003;66486;49.992;19.164;2023-03-19T07:38:13;43.20;40.80;27.20
77413;PMS7003;66486;49.992;19.164;2023-03-19T07:40:39;43.00;40.40;27.00
77413;PMS7003;66486;49.992;19.164;2023-03-19T07:43:05;29.40;28.80;19.00
77413;PMS7003;66486;49.992;19.164;2023-03-19T07:45:31;52.00;49.00;30.00
77413;PMS7003;66486;49.992;19.164;2023-03-19T07:47:57;54.00;47.50;30.00
77413;PMS7003;66486;49.992;19.164;2023-03-19T07:50:26;42.60;41.00;27.00
77413;PMS7003;66486;49.992;19.164;2023-03-19T07:52:52;44.50;40.25;25.00
77413;PMS7003;66486;49.992;19.164;2023-03-19T07:55:18;54.60;49.80;31.40
77413;PMS7003;66486;49.992;19.164;2023-03-19T07:57:44;43.50;42.00;28.00
77413;PMS7003;66486;49.992;19.164;2023-03-19T08:00:10;41.20;38.40;22.00
77413;PMS7003;66486;49.992;19.164;2023-03-19T08:02:37;48.40;44.20;29.60
77413;PMS7003;66486;49.992;19.164;2023-03-19T08:05:03;45.20;41.60;25.60
77413;PMS7003;66486;49.992;19.164;2023-03-19T08:07:32;28.80;28.80;18.40
77413;PMS7003;66486;49.992;19.164;2023-03-19T08:09:58;32.80;31.20;19.80
77413;PMS7003;66486;49.992;19.164;2023-03-19T08:12:24;36.50;32.50;21.00
77413;PMS7003;66486;49.992;19.164;2023-03-19T08:14:50;34.40;32.80;21.20
77413;PMS7003;66486;49.992;19.164;2023-03-19T08:17:16;35.25;27.50;16.00
77413;PMS7003;66486;49.992;19.164;2023-03-19T08:19:42;35.60;31.20;20.60
77413;PMS7003;66486;49.992;19.164;2023-03-19T08:22:08;17.25;15.75;10.00
77413;PMS7003;66486;49.992;19.164;2023-03-19T08:24:35;24.40;23.40;15.40
77413;PMS7003;66486;49.992;19.164;2023-03-19T08:27:01;25.50;24.25;16.00
77413;PMS7003;66486;49.992;19.164;2023-03-19T08:29:27;24.20;22.60;14.20
77413;PMS7003;66486;49.992;19.164;2023-03-19T08:31:54;23.60;23.00;14.60
77413;PMS7003;66486;49.992;19.164;2023-03-19T08:34:21;28.20;25.40;16.20
77413;PMS7003;66486;49.992;19.164;2023-03-19T08:36:47;22.40;21.20;13.00
77413;PMS7003;66486;49.992;19.164;2023-03-19T08:39:14;22.40;21.40;16.00
77413;PMS7003;66486;49.992;19.164;2023-03-19T08:41:40;18.25;16.75;11.50
77413;PMS7003;66486;49.992;19.164;2023-03-19T08:44:06;22.60;20.00;14.20
77413;PMS7003;66486;49.992;19.164;2023-03-19T08:46:32;25.25;24.50;15.25
77413;PMS7003;66486;49.992;19.164;2023-03-19T08:48:58;21.20;18.80;13.20
77413;PMS7003;66486;49.992;19.164;2023-03-19T08:51:25;22.20;22.20;14.00
77413;PMS7003;66486;49.992;19.164;2023-03-19T08:53:52;22.20;20.00;14.00
77413;PMS7003;66486;49.992;19.164;2023-03-19T08:56:18;15.50;14.50;7.75
77413;PMS7003;66486;49.992;19.164;2023-03-19T08:58:45;20.20;18.80;11.40
77413;PMS7003;66486;49.992;19.164;2023-03-19T09:01:11;19.25;17.50;11.25
77413;PMS7003;66486;49.992;19.164;2023-03-19T09:03:39;17.20;16.20;12.20
77413;PMS7003;66486;49.992;19.164;2023-03-19T09:06:07;15.00;15.00;10.20
77413;PMS7003;66486;49.992;19.164;2023-03-19T09:08:35;15.80;14.60;11.00
77413;PMS7003;66486;49.992;19.164;2023-03-19T09:11:02;13.80;13.80;9.20
77413;PMS7003;66486;49.992;19.164;2023-03-19T09:13:29;20.40;18.40;12.00
77413;PMS7003;66486;49.992;19.164;2023-03-19T09:15:55;19.40;19.40;12.40
77413;PMS7003;66486;49.992;19.164;2023-03-19T09:18:21;17.40;17.20;11.20
77413;PMS7003;66486;49.992;19.164;2023-03-19T09:20:51;17.80;16.40;13.00
77413;PMS7003;66486;49.992;19.164;2023-03-19T09:23:18;16.80;15.40;11.00
77413;PMS7003;66486;49.992;19.164;2023-03-19T09:25:45;18.60;18.00;9.00
77413;PMS7003;66486;49.992;19.164;2023-03-19T09:28:11;20.00;19.40;12.80
77413;PMS7003;66486;49.992;19.164;2023-03-19T09:30:37;21.25;19.75;13.25
77413;PMS7003;66486;49.992;19.164;2023-03-19T09:33:04;15.80;15.80;10.60
77413;PMS7003;66486;49.992;19.164;2023-03-19T09:35:31;14.00;13.60;8.00
77413;PMS7003;66486;49.992;19.164;2023-03-19T09:37:58;15.20;13.40;10.40
77413;PMS7003;66486;49.992;19.164;2023-03-19T09:40:28;12.60;11.80;7.60
77413;PMS7003;66486;49.992;19.164;2023-03-19T09:43:22;21.00;17.60;12.40
77413;PMS7003;66486;49.992;19.164;2023-03-19T09:45:54;14.40;14.40;11.00
77413;PMS7003;66486;49.992;19.164;2023-03-19T09:48:29;17.00;17.00;11.40
77413;PMS7003;66486;49.992;19.164;2023-03-19T09:51:01;12.40;12.40;8.00
77413;PMS7003;66486;49.992;19.164;2023-03-19T09:56:18;11.00;10.20;8.40
77413;PMS7003;66486;49.992;19.164;2023-03-19T09:58:44;12.40;12.40;10.60
77413;PMS7003;66486;49.992;19.164;2023-03-19T10:01:16;17.75;16.25;10.50
77413;PMS7003;66486;49.992;19.164;2023-03-19T10:06:43;16.00;16.00;10.75
77413;PMS7003;66486;49.992;19.164;2023-03-19T10:21:06;18.25;16.75;10.50
77413;PMS7003;66486;49.992;19.164;2023-03-19T10:23:49;15.75;14.75;10.75
77413;PMS7003;66486;49.992;19.164;2023-03-19T10:26:26;13.00;13.00;9.00
77413;PMS7003;66486;49.992;19.164;2023-03-19T10:28:56;14.00;14.00;10.00
77413;PMS7003;66486;49.992;19.164;2023-03-19T10:34:13;14.50;13.25;10.00
77413;PMS7003;66486;49.992;19.164;2023-03-19T10:36:45;13.50;12.00;9.00
77413;PMS7003;66486;49.992;19.164;2023-03-19T10:39:11;12.75;11.25;9.00
77413;PMS7003;66486;49.992;19.164;2023-03-19T10:44:27;13.25;13.25;9.25
77413;PMS7003;66486;49.992;19.164;2023-03-19T10:46:57;13.50;12.00;8.00
77413;PMS7003;66486;49.992;19.164;2023-03-19T10:49:24;25.60;24.80;16.20
77413;PMS7003;66486;49.992;19.164;2023-03-19T10:51:51;12.00;12.00;9.75
77413;PMS7003;66486;49.992;19.164;2023-03-19T10:54:26;11.33;11.33;9.00
77413;PMS7003;66486;49.992;19.164;2023-03-19T10:56:54;13.00;13.00;10.25
77413;PMS7003;66486;49.992;19.164;2023-03-19T10:59:23;14.00;14.00;10.25
77413;PMS7003;66486;49.992;19.164;2023-03-19T11:01:54;10.75;10.75;9.50
77413;PMS7003;66486;49.992;19.164;2023-03-19T11:04:22;11.00;11.00;9.00
77413;PMS7003;66486;49.992;19.164;2023-03-19T11:06:51;12.00;10.50;7.25
77413;PMS7003;66486;49.992;19.164;2023-03-19T11:11:55;11.00;11.00;9.50
77413;PMS7003;66486;49.992;19.164;2023-03-19T11:14:24;9.25;9.25;7.00
77413;PMS7003;66486;49.992;19.164;2023-03-19T11:17:16;9.00;9.00;7.25
77413;PMS7003;66486;49.992;19.164;2023-03-19T11:19:51;10.75;10.00;7.00
77413;PMS7003;66486;49.992;19.164;2023-03-19T11:25:00;14.00;14.00;9.00
77413;PMS7003;66486;49.992;19.164;2023-03-19T11:27:29;14.00;13.50;9.00
77413;PMS7003;66486;49.992;19.164;2023-03-19T11:29:59;13.50;12.75;10.00
77413;PMS7003;66486;49.992;19.164;2023-03-19T11:35:16;10.00;10.00;7.00
77413;PMS7003;66486;49.992;19.164;2023-03-19T11:40:28;9.50;9.50;7.00
77413;PMS7003;66486;49.992;19.164;2023-03-19T11:43:23;14.50;11.25;9.50
77413;PMS7003;66486;49.992;19.164;2023-03-19T11:49:15;8.00;8.00;6.00
77413;PMS7003;66486;49.992;19.164;2023-03-19T11:51:56;16.50;14.75;10.00
77413;PMS7003;66486;49.992;19.164;2023-03-19T11:54:39;11.00;11.00;9.00
77413;PMS7003;66486;49.992;19.164;2023-03-19T11:57:18;11.00;10.00;9.00
77413;PMS7003;66486;49.992;19.164;2023-03-19T12:00:06;12.25;12.00;9.00
77413;PMS7003;66486;49.992;19.164;2023-03-19T12:05:32;11.50;10.25;8.00
77413;PMS7003;66486;49.992;19.164;2023-03-19T12:08:17;14.00;13.75;10.00
77413;PMS7003;66486;49.992;19.164;2023-03-19T12:11:19;13.75;13.50;10.00
77413;PMS7003;66486;49.992;19.164;2023-03-19T12:19:19;13.00;13.00;10.25
77413;PMS7003;66486;49.992;19.164;2023-03-19T12:30:14;12.00;12.00;8.00
77413;PMS7003;66486;49.992;19.164;2023-03-19T12:35:26;12.00;11.75;9.25
77413;PMS7003;66486;49.992;19.164;2023-03-19T12:38:00;11.00;11.00;9.00
77413;PMS7003;66486;49.992;19.164;2023-03-19T12:40:44;13.50;13.50;9.50
77413;PMS7003;66486;49.992;19.164;2023-03-19T12:46:30;12.25;12.25;8.00
77413;PMS7003;66486;49.992;19.164;2023-03-19T12:51:44;13.00;13.00;9.75
77413;PMS7003;66486;49.992;19.164;2023-03-19T12:54:28;9.75;9.75;7.50
77413;PMS7003;66486;49.992;19.164;2023-03-19T12:57:03;7.50;6.00;5.25
77413;PMS7003;66486;49.992;19.164;2023-03-19T12:59:40;10.25;10.25;6.50
77413;PMS7003;66486;49.992;19.164;2023-03-19T13:07:39;9.50;9.50;6.50
77413;PMS7003;66486;49.992;19.164;2023-03-19T13:10:19;9.25;9.00;7.00
77413;PMS7003;66486;49.992;19.164;2023-03-19T13:12:47;10.75;10.75;7.75
77413;PMS7003;66486;49.992;19.164;2023-03-19T13:23:23;9.00;9.00;8.00
77413;PMS7003;66486;49.992;19.164;2023-03-19T13:25:55;10.00;10.00;7.50
77413;PMS7003;66486;49.992;19.164;2023-03-19T13:28:28;10.00;10.00;6.75
77413;PMS7003;66486;49.992;19.164;2023-03-19T13:31:00;14.75;14.75;11.00
77413;PMS7003;66486;49.992;19.164;2023-03-19T13:33:29;9.75;9.25;7.00
77413;PMS7003;66486;49.992;19.164;2023-03-19T13:35:56;10.00;10.00;7.00
77413;PMS7003;66486;49.992;19.164;2023-03-19T13:38:33;9.50;8.50;6.75
77413;PMS7003;66486;49.992;19.164;2023-03-19T13:41:22;5.50;5.50;4.00
77413;PMS7003;66486;49.992;19.164;2023-03-19T13:44:17;10.75;10.25;9.00
77413;PMS7003;66486;49.992;19.164;2023-03-19T13:46:52;10.00;10.00;8.00
77413;PMS7003;66486;49.992;19.164;2023-03-19T13:51:46;9.00;9.00;6.00
77413;PMS7003;66486;49.992;19.164;2023-03-19T13:54:17;9.00;8.00;6.50
77413;PMS7003;66486;49.992;19.164;2023-03-19T13:59:30;8.75;7.00;6.00
77413;PMS7003;66486;49.992;19.164;2023-03-19T14:02:01;10.00;9.50;8.00
77413;PMS7003;66486;49.992;19.164;2023-03-19T14:05:00;8.00;8.00;6.50
77413;PMS7003;66486;49.992;19.164;2023-03-19T14:07:29;5.00;5.00;4.50
77413;PMS7003;66486;49.992;19.164;2023-03-19T14:10:07;13.75;13.75;9.50
77413;PMS7003;66486;49.992;19.164;2023-03-19T14:12:42;11.00;10.50;7.50
77413;PMS7003;66486;49.992;19.164;2023-03-19T14:17:37;15.00;15.00;10.00
77413;PMS7003;66486;49.992;19.164;2023-03-19T14:28:18;10.00;10.00;8.00
77413;PMS7003;66486;49.992;19.164;2023-03-19T14:30:48;10.75;10.75;8.00
77413;PMS7003;66486;49.992;19.164;2023-03-19T14:33:19;12.50;12.50;10.00
77413;PMS7003;66486;49.992;19.164;2023-03-19T14:35:50;19.00;19.00;14.00
77413;PMS7003;66486;49.992;19.164;2023-03-19T14:38:27;12.00;12.00;9.00
77413;PMS7003;66486;49.992;19.164;2023-03-19T14:41:00;9.25;9.25;7.00
77413;PMS7003;66486;49.992;19.164;2023-03-19T14:57:28;16.50;15.25;10.25
77413;PMS7003;66486;49.992;19.164;2023-03-19T14:59:59;18.00;18.00;13.75
77413;PMS7003;66486;49.992;19.164;2023-03-19T15:02:36;13.50;10.50;8.00
77413;PMS7003;66486;49.992;19.164;2023-03-19T15:05:05;17.75;17.50;14.25
77413;PMS7003;66486;49.992;19.164;2023-03-19T15:07:46;9.50;8.50;5.50
77413;PMS7003;66486;49.992;19.164;2023-03-19T15:10:25;10.00;10.00;7.00
77413;PMS7003;66486;49.992;19.164;2023-03-19T15:18:28;21.20;19.40;13.60
77413;PMS7003;66486;49.992;19.164;2023-03-19T15:20:54;34.20;32.40;21.80
77413;PMS7003;66486;49.992;19.164;2023-03-19T15:23:24;11.50;11.50;9.50
77413;PMS7003;66486;49.992;19.164;2023-03-19T15:25:54;13.75;13.75;9.50
77413;PMS7003;66486;49.992;19.164;2023-03-19T15:28:22;18.25;17.00;12.50
77413;PMS7003;66486;49.992;19.164;2023-03-19T15:30:57;12.75;11.50;8.50
77413;PMS7003;66486;49.992;19.164;2023-03-19T15:33:33;12.25;11.75;7.00
77413;PMS7003;66486;49.992;19.164;2023-03-19T15:36:11;13.00;13.00;10.00
77413;PMS7003;66486;49.992;19.164;2023-03-19T15:39:25;10.25;10.25;7.00